Time;durP1;ratioP1;P1;durP2;ratioP2;P2;SDS_P1;SDS_P2;PMS_P1;PMS_P2;Temp;Humidity;BMP_temperature;BMP_pressure;BME280_temperature;BME280_humidity;BME280_pressure;Samples;Min_cycle;Max_cycle;Signal;HPM_P1;HPM_P2
2023/05/22 00:01:21;;;;;;;25.40;20.65;;;;;;;17.32;79.30;100236.25;10041409;29;20045;-76
2023/05/22 00:06:24;;;;;;;26.70;21.20;;;;;;;17.26;79.25;100234.25;10036977;29;20454;-76
2023/05/22 00:11:27;;;;;;;29.25;23.17;;;;;;;17.36;81.58;100232.19;10034856;29;20041;-76
2023/05/22 00:16:31;;;;;;;30.38;24.92;;;;;;;17.04;82.87;100250.16;10042429;29;20090;-78
2023/05/22 00:21:36;;;;;;;30.15;24.55;;;;;;;16.49;82.02;100248.06;10047975;29;20053;-78
2023/05/22 00:26:39;;;;;;;31.02;25.25;;;;;;;16.50;80.31;100247.06;10052312;29;20049;-77
2023/05/22 00:31:43;;;;;;;34.50;26.50;;;;;;;17.10;81.84;100258.66;10052761;29;20061;-78
2023/05/22 00:36:46;;;;;;;29.73;24.95;;;;;;;16.87;79.88;100247.63;10068007;29;20387;-76
2023/05/22 00:41:49;;;;;;;29.63;25.73;;;;;;;17.39;81.51;100259.00;10050444;29;20052;-78
2023/05/22 00:46:53;;;;;;;30.95;24.90;;;;;;;17.65;82.83;100253.31;10052186;29;20459;-77
2023/05/22 00:51:57;;;;;;;30.65;24.00;;;;;;;17.79;83.17;100254.47;10050337;29;20482;-77
2023/05/22 00:57:00;;;;;;;29.42;25.05;;;;;;;17.81;82.47;100255.16;10060624;29;20054;-78
2023/05/22 01:02:05;;;;;;;29.58;24.98;;;;;;;17.87;82.64;100245.47;10063248;29;20049;-77
2023/05/22 01:07:08;;;;;;;36.13;25.52;;;;;;;17.86;83.14;100241.91;10071363;29;20073;-76
2023/05/22 01:12:23;;;;;;;30.02;25.08;;;;;;;17.88;83.71;100234.44;10064121;29;20060;-77
2023/05/22 01:17:39;;;;;;;31.13;24.52;;;;;;;17.88;83.68;100230.84;10062310;29;20120;-77
2023/05/22 01:23:15;;;;;;;33.92;26.83;;;;;;;17.83;83.97;100246.84;10065847;29;20050;-77
2023/05/22 01:28:36;;;;;;;32.53;27.00;;;;;;;17.82;84.23;100237.81;10062736;29;20109;-77
2023/05/22 01:33:45;;;;;;;36.10;27.67;;;;;;;17.80;84.33;100239.88;10062482;29;20069;-78
2023/05/22 01:38:48;;;;;;;36.08;27.25;;;;;;;17.67;83.54;100232.28;10079589;29;20052;-78
2023/05/22 01:43:51;;;;;;;32.17;27.35;;;;;;;17.65;83.78;100222.59;10063218;29;20066;-78
2023/05/22 01:48:56;;;;;;;37.80;27.67;;;;;;;17.64;84.52;100224.47;10068533;29;20053;-78
2023/05/22 01:54:04;;;;;;;36.78;28.52;;;;;;;17.58;83.37;100229.75;10065589;29;20046;-77
2023/05/22 01:59:14;;;;;;;35.95;28.05;;;;;;;17.56;83.04;100226.38;10067063;29;20042;-77
2023/05/22 02:04:20;;;;;;;35.17;27.77;;;;;;;17.51;83.92;100228.75;10067004;29;20061;-76
2023/05/22 02:09:27;;;;;;;34.30;26.38;;;;;;;17.50;83.38;100221.63;10059607;29;20049;-78
2023/05/22 02:14:30;;;;;;;36.00;28.55;;;;;;;17.50;82.31;100208.03;10086667;29;20421;-77
2023/05/22 02:19:35;;;;;;;34.20;25.98;;;;;;;17.50;82.18;100200.78;10060054;29;20045;-78
2023/05/22 02:24:40;;;;;;;31.33;25.55;;;;;;;17.55;81.32;100206.53;10066500;29;20049;-77
2023/05/22 02:29:44;;;;;;;29.60;24.35;;;;;;;17.62;81.64;100206.66;10064648;29;20131;-78
2023/05/22 02:34:48;;;;;;;31.77;24.33;;;;;;;17.67;82.00;100198.84;10068267;29;20407;-78
2023/05/22 02:39:51;;;;;;;29.88;24.95;;;;;;;17.69;82.15;100196.81;10065114;29;20077;-78
2023/05/22 02:44:53;;;;;;;28.38;23.23;;;;;;;17.74;82.20;100188.94;10057049;29;20046;-76
2023/05/22 02:49:58;;;;;;;30.67;24.85;;;;;;;17.80;81.04;100196.41;10079770;29;20057;-77
2023/05/22 02:55:01;;;;;;;27.98;23.90;;;;;;;17.75;80.33;100189.81;10053464;29;20101;-78
2023/05/22 03:00:05;;;;;;;29.63;23.30;;;;;;;17.71;79.39;100186.59;10052135;29;20117;-77
2023/05/22 03:05:10;;;;;;;28.23;22.70;;;;;;;17.76;80.28;100180.63;10060686;29;20054;-77
2023/05/22 03:10:13;;;;;;;33.25;24.75;;;;;;;17.75;79.27;100185.22;10064053;29;20058;-77
2023/05/22 03:15:16;;;;;;;29.98;23.20;;;;;;;17.69;78.73;100185.94;10059894;29;20396;-78
2023/05/22 03:20:21;;;;;;;29.52;23.48;;;;;;;17.67;78.12;100183.38;10054270;29;20053;-77
2023/05/22 03:25:24;;;;;;;27.65;23.30;;;;;;;17.74;77.93;100183.50;10057881;29;20052;-77
2023/05/22 03:30:26;;;;;;;26.25;22.55;;;;;;;17.80;77.49;100184.69;10063297;29;20055;-77
2023/05/22 03:35:45;;;;;;;30.83;24.48;;;;;;;17.81;77.17;100189.13;10062510;29;20054;-78
2023/05/22 03:40:48;;;;;;;26.42;22.65;;;;;;;17.71;76.52;100173.00;10061949;29;20050;-77
2023/05/22 03:45:51;;;;;;;28.55;24.20;;;;;;;17.72;76.32;100182.00;10062418;29;20065;-77
2023/05/22 03:50:55;;;;;;;27.40;22.10;;;;;;;17.70;76.31;100176.75;10041993;29;20461;-77
2023/05/22 03:55:58;;;;;;;29.35;23.73;;;;;;;17.69;76.27;100165.06;10045106;29;20050;-77
2023/05/22 04:01:01;;;;;;;32.35;24.27;;;;;;;17.77;76.04;100166.03;10045724;29;20466;-77
2023/05/22 04:06:06;;;;;;;28.42;23.42;;;;;;;17.77;75.43;100166.03;10075893;29;20050;-76
2023/05/22 04:11:09;;;;;;;26.05;22.70;;;;;;;17.77;75.40;100163.31;10048700;29;20049;-76
2023/05/22 04:16:12;;;;;;;27.70;21.85;;;;;;;17.82;75.11;100172.63;10047729;29;20060;-76
2023/05/22 04:21:17;;;;;;;29.23;22.80;;;;;;;17.86;74.82;100170.41;10049559;29;20045;-76
2023/05/22 04:26:20;;;;;;;29.13;21.92;;;;;;;17.92;74.20;100167.81;10047519;29;20045;-76
2023/05/22 04:31:24;;;;;;;27.52;21.33;;;;;;;17.97;73.12;100166.47;10049596;29;20136;-76
2023/05/22 04:36:29;;;;;;;28.60;20.20;;;;;;;17.99;72.50;100164.41;10045558;29;20563;-75
2023/05/22 04:41:33;;;;;;;23.02;18.38;;;;;;;18.15;71.93;100175.19;10046131;29;20060;-75
2023/05/22 04:46:36;;;;;;;26.23;18.52;;;;;;;18.21;70.67;100179.94;10050247;29;20105;-76
2023/05/22 04:51:40;;;;;;;25.08;20.13;;;;;;;18.28;70.89;100180.91;10050131;29;20049;-77
2023/05/22 04:56:43;;;;;;;25.33;19.17;;;;;;;18.32;70.92;100187.69;10058957;29;20429;-76
2023/05/22 05:01:46;;;;;;;25.25;17.98;;;;;;;18.45;70.31;100195.22;10051256;29;20106;-76
2023/05/22 05:06:51;;;;;;;19.88;17.00;;;;;;;18.33;67.80;100200.25;10052557;29;20049;-77
2023/05/22 05:11:54;;;;;;;21.83;17.98;;;;;;;;;;10080756;29;20135;-76
2023/05/22 05:16:57;;;;;;;24.15;19.85;;;;;;;18.34;70.08;100182.88;10057604;29;20060;-77
2023/05/22 05:22:02;;;;;;;22.40;18.23;;;;;;;18.53;69.17;100189.72;10048991;29;20056;-77
2023/05/22 05:27:05;;;;;;;22.30;17.77;;;;;;;18.71;68.41;100186.72;10055027;29;20516;-77
2023/05/22 05:32:11;;;;;;;21.40;16.10;;;;;;;18.94;67.83;100177.72;10061654;29;20065;-77
2023/05/22 05:37:26;;;;;;;20.52;17.58;;;;;;;19.10;67.29;100174.00;10051514;29;20128;-77
2023/05/22 05:42:33;;;;;;;19.30;15.32;;;;;;;19.24;66.34;100184.06;10057548;29;20513;-77
2023/05/22 05:47:39;;;;;;;21.90;16.13;;;;;;;19.29;65.29;100188.94;10076118;29;20054;-77
2023/05/22 05:52:44;;;;;;;18.65;16.00;;;;;;;19.48;65.09;100179.38;10052070;29;20136;-77
2023/05/22 05:57:51;;;;;;;21.52;15.80;;;;;;;19.68;64.37;100178.63;10048382;29;20053;-77
2023/05/22 06:03:00;;;;;;;18.50;15.93;;;;;;;19.94;63.02;100180.03;10052017;29;20505;-77
2023/05/22 06:08:27;;;;;;;18.25;14.82;;;;;;;20.15;61.93;100178.38;10049274;29;20671;-76
2023/05/22 06:13:30;;;;;;;17.02;14.13;;;;;;;20.43;60.96;100184.84;10063201;29;20101;-77
2023/05/22 06:18:33;;;;;;;15.85;14.10;;;;;;;20.59;60.14;100175.53;10075064;29;20042;-77
2023/05/22 06:23:37;;;;;;;17.27;14.30;;;;;;;20.62;60.32;100177.84;10046873;29;20053;-76
2023/05/22 06:28:42;;;;;;;15.00;12.57;;;;;;;20.75;59.28;100177.16;10065474;29;20056;-76
2023/05/22 06:33:46;;;;;;;21.83;14.55;;;;;;;21.03;58.90;100174.44;10043428;29;20491;-77
2023/05/22 06:38:54;;;;;;;18.48;14.23;;;;;;;20.98;57.60;100177.78;10041788;29;20077;-76
2023/05/22 06:44:17;;;;;;;19.85;15.60;;;;;;;20.71;57.89;100181.31;10039397;29;20049;-76
2023/05/22 06:49:19;;;;;;;16.85;15.05;;;;;;;20.63;58.21;100178.72;10043870;29;20041;-76
2023/05/22 06:54:28;;;;;;;23.73;16.50;;;;;;;20.75;59.02;100182.59;10039132;29;20058;-76
2023/05/22 06:59:32;;;;;;;19.90;15.75;;;;;;;20.76;58.14;100178.81;10053388;29;20057;-76
2023/05/22 07:04:40;;;;;;;20.63;16.88;;;;;;;20.94;57.83;100181.09;10043622;29;20104;-76
2023/05/22 07:09:49;;;;;;;24.60;15.77;;;;;;;21.21;57.25;100184.91;10049222;29;20067;-75
2023/05/22 07:14:53;;;;;;;19.83;15.40;;;;;;;21.52;56.87;100180.91;10051541;29;20073;-76
2023/05/22 07:19:58;;;;;;;21.48;15.63;;;;;;;21.61;55.42;100177.81;10042305;29;20058;-76
2023/05/22 07:25:03;;;;;;;23.75;16.13;;;;;;;21.66;56.33;100180.75;10041022;29;20050;-77
2023/05/22 07:30:09;;;;;;;19.00;16.02;;;;;;;21.49;55.30;100187.59;10069427;29;20042;-76
2023/05/22 07:35:14;;;;;;;18.60;15.95;;;;;;;21.62;55.78;100178.66;10066664;29;20057;-76
2023/05/22 07:40:18;;;;;;;18.45;15.32;;;;;;;22.26;55.32;100181.03;10049625;29;20136;-76
2023/05/22 07:45:21;;;;;;;19.63;15.40;;;;;;;22.72;53.58;100177.59;10052481;29;20093;-76
2023/05/22 07:50:25;;;;;;;22.42;13.95;;;;;;;23.07;53.28;100180.13;10058015;29;20065;-76
2023/05/22 07:55:30;;;;;;;20.65;14.93;;;;;;;23.11;52.21;100183.31;10055208;29;20051;-76
2023/05/22 08:00:33;;;;;;;19.70;13.75;;;;;;;23.24;51.74;100182.47;10059094;29;20041;-75
2023/05/22 08:05:36;;;;;;;16.67;13.10;;;;;;;23.48;50.57;100186.41;10047669;29;20057;-76
2023/05/22 08:10:40;;;;;;;16.55;13.55;;;;;;;23.50;51.05;100187.03;10055118;29;20069;-77
2023/05/22 08:16:03;;;;;;;19.10;13.52;;;;;;;23.64;50.26;100181.31;10052784;29;20169;-76
2023/05/22 08:21:06;;;;;;;17.98;13.55;;;;;;;23.72;50.79;100187.63;10052619;29;20462;-77
2023/05/22 08:26:10;;;;;;;16.90;13.52;;;;;;;24.09;48.93;100175.91;10049899;29;20057;-76
2023/05/22 08:31:14;;;;;;;15.38;13.45;;;;;;;24.56;49.30;100183.06;10049861;29;20038;-76
2023/05/22 08:36:17;;;;;;;14.20;12.70;;;;;;;24.82;48.20;100173.78;10049584;29;20049;-75
2023/05/22 08:41:21;;;;;;;16.45;13.15;;;;;;;24.78;47.95;100184.38;10046889;29;20049;-75
2023/05/22 08:46:27;;;;;;;15.25;12.30;;;;;;;25.34;47.07;100171.63;10048904;29;20049;-75
2023/05/22 08:51:34;;;;;;;14.98;12.55;;;;;;;25.08;46.61;100173.59;10044481;29;20116;-75
2023/05/22 08:56:39;;;;;;;13.98;12.63;;;;;;;25.04;46.84;100177.00;10047030;29;20054;-75
2023/05/22 09:01:58;;;;;;;14.30;12.60;;;;;;;26.08;46.24;100164.25;10009966;29;20128;-76
2023/05/22 09:07:04;;;;;;;22.65;12.75;;;;;;;26.36;44.80;100160.94;10008761;29;20053;-76
2023/05/22 09:12:10;;;;;;;14.48;12.20;;;;;;;26.68;44.52;100155.13;10004190;29;20069;-76
2023/05/22 09:17:15;;;;;;;13.15;11.57;;;;;;;26.57;44.50;100162.28;10007376;29;20053;-76
2023/05/22 09:22:19;;;;;;;13.00;11.60;;;;;;;26.79;43.68;100154.31;10002027;29;20767;-73
2023/05/22 09:27:25;;;;;;;14.23;12.32;;;;;;;26.86;43.87;100149.56;10003302;29;21308;-76
2023/05/22 09:32:30;;;;;;;12.57;11.27;;;;;;;27.18;43.37;100163.84;10001729;29;20049;-77
2023/05/22 09:37:34;;;;;;;16.15;12.20;;;;;;;27.27;42.88;100155.22;10007979;29;21250;-75
2023/05/22 09:42:38;;;;;;;13.68;12.10;;;;;;;27.50;42.26;100154.38;10008081;29;20061;-75
2023/05/22 09:47:41;;;;;;;12.93;11.68;;;;;;;28.52;40.91;100153.72;10013883;29;20065;-77
2023/05/22 09:52:46;;;;;;;13.35;11.52;;;;;;;27.06;41.06;100146.47;10010134;29;20050;-76
2023/05/22 09:57:52;;;;;;;13.68;11.20;;;;;;;26.38;42.79;100150.50;10011130;29;20060;-76
2023/05/22 10:03:02;;;;;;;13.15;11.23;;;;;;;26.88;41.97;100149.34;10007608;29;20430;-76
2023/05/22 10:08:10;;;;;;;12.65;11.45;;;;;;;26.60;41.99;100147.22;10008784;29;20049;-75
2023/05/22 10:13:16;;;;;;;12.40;11.20;;;;;;;28.56;41.26;100145.78;10005037;29;20052;-75
2023/05/22 10:18:18;;;;;;;18.27;12.02;;;;;;;29.56;39.57;100144.84;10004463;29;20106;-76
2023/05/22 10:23:22;;;;;;;14.20;11.75;;;;;;;29.88;37.80;100148.91;10010656;29;20052;-75
2023/05/22 10:28:35;;;;;;;13.50;11.48;;;;;;;29.96;39.13;100132.66;10007588;29;20198;-76
2023/05/22 10:33:43;;;;;;;14.65;11.13;;;;;;;30.28;37.96;100128.31;10014258;29;20057;-75
2023/05/22 10:39:04;;;;;;;11.98;10.73;;;;;;;30.43;38.24;100125.69;10014334;29;20123;-77
2023/05/22 10:44:08;;;;;;;12.43;11.23;;;;;;;30.73;37.08;100116.84;10013534;29;20056;-77
2023/05/22 10:49:21;;;;;;;14.25;12.75;;;;;;;30.87;36.96;100118.06;10014957;29;20051;-76
2023/05/22 10:54:39;;;;;;;13.18;11.85;;;;;;;31.14;36.12;100117.13;10008517;29;20576;-77
2023/05/22 10:59:44;;;;;;;13.45;12.05;;;;;;;29.94;37.21;100109.94;9997580;29;20057;-76
2023/05/22 11:04:47;;;;;;;15.82;12.20;;;;;;;30.49;37.20;100105.25;9992532;29;20532;-77
2023/05/22 11:09:59;;;;;;;13.45;11.95;;;;;;;31.54;36.14;100107.38;9987671;29;21262;-77
2023/05/22 11:15:06;;;;;;;12.82;11.55;;;;;;;31.07;34.94;100100.72;9986990;29;20561;-75
2023/05/22 11:20:14;;;;;;;12.80;11.57;;;;;;;31.88;35.71;100099.50;9989550;29;20056;-76
2023/05/22 11:25:20;;;;;;;13.65;11.32;;;;;;;31.72;35.26;100100.56;9999845;29;20735;-76
2023/05/22 11:30:27;;;;;;;12.93;11.73;;;;;;;29.96;36.58;100091.13;9990760;29;20050;-75
2023/05/22 11:35:30;;;;;;;20.13;13.27;;;;;;;30.44;37.06;100094.09;9993101;29;20054;-76
2023/05/22 11:40:33;;;;;;;13.43;12.02;;;;;;;32.16;35.88;100086.22;10003596;29;20053;-75
2023/05/22 11:45:39;;;;;;;14.07;12.52;;;;;;;31.24;36.05;100083.09;10001264;29;20054;-76
2023/05/22 11:50:43;;;;;;;13.57;12.38;;;;;;;32.32;36.33;100079.59;9996702;29;20057;-76
2023/05/22 11:55:48;;;;;;;12.18;11.07;;;;;;;33.22;34.00;100075.38;10000725;29;20058;-76
2023/05/22 12:00:52;;;;;;;13.15;11.90;;;;;;;32.85;33.90;100063.47;10001427;29;20156;-77
2023/05/22 12:05:55;;;;;;;12.90;11.68;;;;;;;33.16;32.83;100060.66;10001290;29;20075;-76
2023/05/22 12:10:58;;;;;;;14.60;11.73;;;;;;;32.47;34.43;100058.47;10001044;29;20598;-77
2023/05/22 12:16:18;;;;;;;13.93;12.63;;;;;;;32.82;33.88;100052.91;10003401;29;20105;-76
2023/05/22 12:21:21;;;;;;;15.35;12.00;;;;;;;33.63;33.23;100039.91;10012440;29;20049;-77
2023/05/22 12:26:24;;;;;;;17.30;12.60;;;;;;;33.74;33.38;100044.28;10016445;29;20054;-77
2023/05/22 12:31:34;;;;;;;13.80;12.35;;;;;;;34.17;32.99;100044.59;10016892;29;20058;-77
2023/05/22 12:36:39;;;;;;;13.73;12.13;;;;;;;34.44;31.61;100043.22;10010053;29;20540;-77
2023/05/22 12:41:43;;;;;;;18.17;13.85;;;;;;;32.09;38.71;100046.75;10012372;29;20069;-77
2023/05/22 12:46:47;;;;;;;17.77;15.85;;;;;;;29.33;42.98;100054.66;9987903;28;20050;-77
2023/05/22 12:51:50;;;;;;;15.50;13.85;;;;;;;30.43;41.76;100045.34;10003851;29;20522;-75
2023/05/22 12:56:53;;;;;;;15.82;14.20;;;;;;;31.56;39.82;100049.66;10008811;29;20654;-76
2023/05/22 13:02:00;;;;;;;15.10;13.52;;;;;;;31.50;40.20;100043.25;10005363;29;20137;-77
2023/05/22 13:07:03;;;;;;;16.13;13.85;;;;;;;32.17;38.68;100035.13;10005014;29;20204;-76
2023/05/22 13:12:09;;;;;;;15.48;13.85;;;;;;;32.10;39.21;100029.00;10007151;29;20053;-76
2023/05/22 13:17:13;;;;;;;17.65;13.38;;;;;;;33.18;37.81;100038.09;10005249;29;20509;-76
2023/05/22 13:22:16;;;;;;;16.27;14.00;;;;;;;33.53;37.04;100037.94;10003103;29;20060;-76
2023/05/22 13:27:19;;;;;;;18.35;15.00;;;;;;;32.22;39.40;100035.13;10005001;29;20068;-75
2023/05/22 13:32:23;;;;;;;17.70;14.57;;;;;;;30.85;42.38;100037.06;10001445;29;20104;-76
2023/05/22 13:37:26;;;;;;;16.02;14.38;;;;;;;32.41;39.69;100025.13;10002373;29;20056;-76
2023/05/22 13:42:29;;;;;;;18.63;15.57;;;;;;;28.81;44.68;100034.81;10007797;29;20054;-74
2023/05/22 13:47:33;;;;;;;16.85;14.98;;;;;;;30.40;43.29;100020.94;10016900;29;20057;-77
2023/05/22 13:52:36;;;;;;;16.10;14.52;;;;;;;30.30;41.96;100009.78;10014885;29;20061;-77
2023/05/22 13:57:40;;;;;;;15.70;14.10;;;;;;;30.71;42.32;99999.03;10015114;29;20398;-76
2023/05/22 14:02:45;;;;;;;18.33;14.27;;;;;;;31.69;39.73;99990.06;10012985;29;20054;-76
2023/05/22 14:07:49;;;;;;;18.02;16.02;;;;;;;31.81;39.12;99989.78;10008103;29;20057;-76
2023/05/22 14:12:53;;;;;;;18.42;15.30;;;;;;;31.05;39.02;100013.38;10012310;29;20053;-76
2023/05/22 14:17:57;;;;;;;9.40;8.43;;;;;;;30.17;36.53;100022.13;10011427;29;20081;-77
2023/05/22 14:23:00;;;;;;;9.13;7.55;;;;;;;27.81;38.16;100046.34;10009094;29;21615;-76
2023/05/22 14:28:03;;;;;;;8.60;7.57;;;;;;;25.73;41.51;100054.88;10009287;29;20080;-77
2023/05/22 14:33:07;;;;;;;10.95;8.88;;;;;;;24.55;44.47;100058.69;10011054;29;20061;-77
2023/05/22 14:38:10;;;;;;;18.52;10.07;;;;;;;25.24;43.99;100034.75;10002652;29;20091;-76
2023/05/22 14:43:13;;;;;;;16.80;7.00;;;;;;;24.03;46.90;100039.63;10003914;29;20057;-77
2023/05/22 14:48:17;;;;;;;11.50;7.78;;;;;;;24.29;47.06;100051.44;10005174;29;20433;-76
2023/05/22 14:53:20;;;;;;;9.75;8.30;;;;;;;24.90;46.46;100071.84;9997721;29;20411;-77
2023/05/22 14:58:23;;;;;;;10.38;6.80;;;;;;;24.36;47.15;100074.22;10011638;29;20505;-75
2023/05/22 15:03:28;;;;;;;8.57;6.88;;;;;;;23.80;47.27;100053.03;10008843;29;20527;-73
2023/05/22 15:08:30;;;;;;;7.95;7.03;;;;;;;24.01;46.99;100060.09;10010674;29;20057;-76
2023/05/22 15:13:33;;;;;;;9.45;8.15;;;;;;;23.61;46.59;100057.53;10010515;29;20064;-77
2023/05/22 15:18:37;;;;;;;11.32;7.85;;;;;;;23.16;47.97;100066.56;10010589;29;21123;-75
2023/05/22 15:23:42;;;;;;;13.18;7.85;;;;;;;23.94;46.80;100060.13;10009442;29;20062;-77
2023/05/22 15:28:44;;;;;;;8.02;7.22;;;;;;;24.63;45.76;100057.53;10009059;29;21233;-76
2023/05/22 15:33:49;;;;;;;8.32;7.53;;;;;;;24.22;46.00;100042.44;10006325;29;20054;-76
2023/05/22 15:38:52;;;;;;;8.95;7.25;;;;;;;23.96;46.97;100041.56;10007752;29;20046;-75
2023/05/22 15:43:55;;;;;;;8.90;6.70;;;;;;;23.53;46.89;100044.94;10015422;29;20530;-75
2023/05/22 15:48:59;;;;;;;10.85;9.77;;;;;;;22.60;48.41;100039.69;10000118;29;20245;-77
2023/05/22 15:54:02;;;;;;;18.95;9.45;;;;;;;20.32;78.38;100078.94;10003660;29;20045;-77
2023/05/22 15:59:04;;;;;;;14.43;10.82;;;;;;;17.76;100.00;100069.25;9997955;29;20046;-76
2023/05/22 16:04:09;;;;;;;22.70;15.63;;;;;;;17.36;100.00;100074.75;10009156;29;20054;-76
2023/05/22 16:09:14;;;;;;;20.75;16.40;;;;;;;16.91;100.00;100057.19;10012645;29;20189;-76
2023/05/22 16:14:17;;;;;;;23.42;13.70;;;;;;;16.73;100.00;100064.69;10022076;29;20050;-77
2023/05/22 16:19:21;;;;;;;21.52;13.55;;;;;;;15.76;98.07;100115.94;10018051;29;20069;-76
2023/05/22 16:24:25;;;;;;;23.92;15.82;;;;;;;15.72;97.07;100154.34;10021238;29;20434;-76
2023/05/22 16:29:29;;;;;;;36.40;18.02;;;;;;;15.63;96.24;100172.41;10044599;29;20053;-75
2023/05/22 16:34:33;;;;;;;31.33;17.67;;;;;;;15.44;97.32;100160.81;10019437;29;20057;-76
2023/05/22 16:39:38;;;;;;;31.00;14.30;;;;;;;14.73;96.92;100215.06;10019214;29;20053;-75
2023/05/22 16:44:41;;;;;;;58.70;24.20;;;;;;;14.76;100.00;100206.66;10018543;29;20057;-73
2023/05/22 16:49:45;;;;;;;87.97;25.83;;;;;;;14.89;100.00;100212.50;10017055;29;20065;-74
2023/05/22 16:54:48;;;;;;;35.47;24.08;;;;;;;15.40;100.00;100189.22;10019392;29;20054;-74
2023/05/22 16:59:51;;;;;;;40.65;24.63;;;;;;;15.45;100.00;100164.38;10019128;29;20049;-74
2023/05/22 17:04:56;;;;;;;40.05;27.02;;;;;;;15.40;100.00;100135.06;10020734;29;20045;-74
2023/05/22 17:10:01;;;;;;;42.90;26.77;;;;;;;15.67;100.00;100100.69;10014871;29;20061;-75
2023/05/22 17:15:04;;;;;;;33.40;22.77;;;;;;;15.84;100.00;100104.28;10014347;29;20057;-77
2023/05/22 17:20:10;;;;;;;28.35;20.63;;;;;;;15.93;100.00;100116.81;10017846;29;20045;-77
2023/05/22 17:25:13;;;;;;;29.63;21.00;;;;;;;15.70;100.00;100119.31;10007196;29;20136;-76
2023/05/22 17:30:16;;;;;;;30.55;20.73;;;;;;;15.78;100.00;100110.38;10006985;29;20838;-75
2023/05/22 17:35:20;;;;;;;29.60;20.95;;;;;;;15.58;100.00;100109.78;10005564;29;20061;-74
2023/05/22 17:40:23;;;;;;;33.80;22.83;;;;;;;15.56;100.00;100103.69;10022344;29;20239;-74
2023/05/22 17:45:43;;;;;;;34.50;23.58;;;;;;;16.16;100.00;100089.94;10007216;29;20041;-74
2023/05/22 17:50:48;;;;;;;37.55;25.70;;;;;;;16.21;100.00;100082.16;10003766;29;20053;-74
2023/05/22 17:55:52;;;;;;;36.70;24.83;;;;;;;16.62;100.00;100090.34;10002690;29;20085;-74
2023/05/22 18:00:55;;;;;;;38.97;26.25;;;;;;;16.71;100.00;100094.72;10006382;29;20048;-73
2023/05/22 18:05:59;;;;;;;37.17;24.73;;;;;;;16.91;100.00;100092.47;10008797;29;20052;-74
2023/05/22 18:11:03;;;;;;;45.45;26.55;;;;;;;16.85;99.76;100117.56;10004314;29;20216;-74
2023/05/22 18:16:06;;;;;;;39.00;25.70;;;;;;;16.60;100.00;100165.56;10014383;29;20505;-73
2023/05/22 18:21:11;;;;;;;43.15;27.17;;;;;;;16.56;99.46;100222.00;10010112;29;20085;-73
2023/05/22 18:26:14;;;;;;;39.83;23.98;;;;;;;16.05;100.00;100247.41;10015234;29;21254;-74
2023/05/22 18:31:16;;;;;;;26.42;19.15;;;;;;;16.00;100.00;100244.34;10008117;29;20532;-73
2023/05/22 18:36:21;;;;;;;31.23;19.40;;;;;;;16.15;98.44;100224.59;10018706;29;20053;-75
2023/05/22 18:41:25;;;;;;;21.08;13.55;;;;;;;15.10;99.44;100222.97;10017808;29;20076;-74
2023/05/22 18:46:27;;;;;;;17.13;12.80;;;;;;;15.39;99.95;100208.34;10015178;29;20056;-75
2023/05/22 18:51:32;;;;;;;18.58;12.15;;;;;;;15.31;99.22;100216.38;10016861;29;20060;-74
2023/05/22 18:56:35;;;;;;;11.63;10.07;;;;;;;15.24;100.00;100211.56;10014213;29;20057;-73
2023/05/22 19:01:39;;;;;;;13.32;10.32;;;;;;;15.13;99.44;100211.84;10016396;29;21754;-73
2023/05/22 19:06:44;;;;;;;13.10;11.05;;;;;;;15.19;99.87;100224.75;10014796;29;20152;-76
2023/05/22 19:11:47;;;;;;;20.48;10.15;;;;;;;15.43;97.83;100225.94;10013966;29;20060;-74
2023/05/22 19:16:50;;;;;;;16.17;11.07;;;;;;;15.63;98.00;100226.53;10013607;29;20128;-75
2023/05/22 19:21:55;;;;;;;23.73;13.60;;;;;;;15.67;98.56;100214.41;10011135;29;20080;-75
2023/05/22 19:26:57;;;;;;;18.45;12.68;;;;;;;15.95;96.83;100198.78;10012844;29;20053;-76
2023/05/22 19:32:00;;;;;;;15.50;11.95;;;;;;;16.05;96.92;100204.91;10009440;29;20144;-76
2023/05/22 19:37:05;;;;;;;16.67;13.68;;;;;;;15.86;96.51;100191.63;10043824;29;20053;-75
2023/05/22 19:42:09;;;;;;;18.00;13.45;;;;;;;15.76;97.31;100209.88;10019491;29;20425;-75
2023/05/22 19:47:12;;;;;;;17.23;13.27;;;;;;;15.68;97.05;100210.66;10015638;29;20075;-75
2023/05/22 19:52:16;;;;;;;21.88;16.38;;;;;;;15.73;97.69;100221.03;10016570;29;20429;-75
2023/05/22 19:57:19;;;;;;;20.58;16.50;;;;;;;15.53;97.40;100232.09;10011528;29;20090;-75
2023/05/22 20:02:22;;;;;;;24.92;19.35;;;;;;;15.81;97.79;100232.75;10013985;29;20936;-75
2023/05/22 20:07:26;;;;;;;27.70;20.75;;;;;;;15.96;97.19;100226.69;10014014;29;20449;-75
2023/05/22 20:12:29;;;;;;;23.40;18.33;;;;;;;16.10;96.27;100221.53;10003575;29;20050;-75
2023/05/22 20:17:32;;;;;;;27.35;21.40;;;;;;;16.15;96.41;100232.72;10006048;29;20046;-75
2023/05/22 20:22:37;;;;;;;29.10;22.17;;;;;;;16.12;95.58;100224.88;10008299;29;20053;-75
2023/05/22 20:27:40;;;;;;;26.73;20.95;;;;;;;15.97;96.36;100234.69;10045462;29;20049;-75
2023/05/22 20:32:45;;;;;;;27.15;20.00;;;;;;;16.00;95.93;100238.91;10018331;29;20090;-75
2023/05/22 20:37:52;;;;;;;27.05;19.17;;;;;;;15.93;96.09;100234.16;10016440;29;20497;-75
2023/05/22 20:42:55;;;;;;;23.90;19.27;;;;;;;15.83;96.65;100225.31;10019676;29;20304;-74
2023/05/22 20:47:59;;;;;;;24.02;19.13;;;;;;;16.04;96.59;100224.03;10016576;29;20086;-74
2023/05/22 20:53:05;;;;;;;24.90;19.45;;;;;;;16.13;95.87;100226.59;10018070;29;20534;-75
2023/05/22 20:58:08;;;;;;;23.92;18.17;;;;;;;16.03;95.64;100234.00;10016676;29;20060;-74
2023/05/22 21:03:11;;;;;;;21.17;16.20;;;;;;;15.53;96.06;100245.63;10013045;29;20491;-75
2023/05/22 21:08:15;;;;;;;23.50;18.35;;;;;;;15.48;97.27;100250.66;10020018;29;20053;-75
2023/05/22 21:13:18;;;;;;;28.73;20.85;;;;;;;15.70;96.81;100250.13;10040874;29;20050;-74
2023/05/22 21:18:21;;;;;;;25.77;19.75;;;;;;;15.53;96.44;100248.34;10041047;29;20057;-74
2023/05/22 21:23:26;;;;;;;27.27;20.52;;;;;;;15.60;95.76;100245.81;10048772;29;20041;-74
2023/05/22 21:28:29;;;;;;;25.55;21.67;;;;;;;15.72;96.67;100246.41;10051023;29;20524;-76
2023/05/22 21:33:32;;;;;;;26.45;23.08;;;;;;;15.88;96.40;100232.94;10049748;29;20042;-75
2023/05/22 21:38:36;;;;;;;31.92;25.75;;;;;;;16.06;95.98;100230.13;10056861;29;20042;-75
2023/05/22 21:43:39;;;;;;;41.33;31.67;;;;;;;16.02;96.87;100243.16;10048489;29;20480;-74
2023/05/22 21:48:42;;;;;;;57.08;39.63;;;;;;;16.13;96.37;100247.44;10047927;29;20077;-74
2023/05/22 21:53:46;;;;;;;54.70;37.50;;;;;;;15.78;97.16;100262.00;10051038;29;20069;-75
2023/05/22 21:58:49;;;;;;;67.72;45.67;;;;;;;16.07;96.96;100275.16;10033469;29;20077;-75
2023/05/22 22:03:52;;;;;;;68.05;48.60;;;;;;;15.88;95.66;100285.25;10036203;29;20094;-75
2023/05/22 22:08:58;;;;;;;67.10;46.83;;;;;;;15.16;97.87;100286.41;10030269;29;20057;-75
2023/05/22 22:14:01;;;;;;;70.50;46.35;;;;;;;15.39;96.56;100273.28;10029610;29;20054;-74
2023/05/22 22:19:04;;;;;;;64.07;43.20;;;;;;;15.59;95.74;100282.88;10035096;29;20419;-75
2023/05/22 22:24:08;;;;;;;59.60;42.95;;;;;;;15.54;96.67;100287.91;10036619;29;20125;-76
2023/05/22 22:29:11;;;;;;;53.53;40.63;;;;;;;15.27;97.93;100280.75;10036363;29;20106;-75
2023/05/22 22:34:14;;;;;;;57.22;40.80;;;;;;;15.54;96.49;100281.66;10037199;29;20510;-75
2023/05/22 22:39:18;;;;;;;54.33;39.25;;;;;;;15.68;94.29;100275.66;10040301;29;20046;-75
2023/05/22 22:44:21;;;;;;;52.03;37.85;;;;;;;15.36;95.30;100282.56;10040779;29;20097;-75
2023/05/22 22:49:24;;;;;;;52.22;37.22;;;;;;;15.29;95.08;100277.91;10042030;29;20057;-75